createdAt,value
2018-08-04T00:01:13.515Z,51.29
2018-08-04T00:03:46.919Z,51.66
2018-08-04T00:06:20.319Z,51.84
2018-08-04T00:08:53.702Z,51.24
2018-08-04T00:11:27.119Z,51.14
2018-08-04T00:14:00.539Z,50.79
2018-08-04T00:16:34.119Z,50.54
2018-08-04T00:19:07.779Z,50.73
2018-08-04T00:21:41.180Z,50.39
2018-08-04T00:24:14.588Z,50.85
2018-08-04T00:26:47.978Z,50.79
2018-08-04T00:29:21.413Z,50.76
2018-08-04T00:31:54.827Z,50.83
2018-08-04T00:34:28.273Z,51.33
2018-08-04T00:37:01.652Z,51.50
2018-08-04T00:39:35.052Z,52.05
2018-08-04T00:42:08.558Z,51.81
2018-08-04T00:44:41.972Z,51.92
2018-08-04T00:47:15.382Z,52.17
2018-08-04T00:49:48.783Z,51.96
2018-08-04T00:52:22.254Z,52.47
2018-08-04T00:54:56.042Z,53.53
2018-08-04T00:57:29.556Z,52.23
2018-08-04T01:00:03.105Z,52.49
2018-08-04T01:02:36.587Z,51.99
2018-08-04T01:05:10.015Z,52.39
2018-08-04T01:07:43.481Z,52.24
2018-08-04T01:10:16.925Z,52.47
2018-08-04T01:12:50.318Z,52.48
2018-08-04T01:15:23.715Z,51.88
2018-08-04T01:17:57.091Z,51.92
2018-08-04T01:20:30.507Z,52.06
2018-08-04T01:23:03.921Z,51.69
2018-08-04T01:25:38.284Z,51.73
2018-08-04T01:28:11.664Z,51.39
2018-08-04T01:30:45.065Z,52.41
2018-08-04T01:33:18.490Z,51.72
2018-08-04T01:35:51.955Z,51.59
2018-08-04T01:38:25.371Z,51.72
2018-08-04T01:40:58.868Z,51.66
2018-08-04T01:43:32.316Z,51.37
2018-08-04T01:46:05.786Z,52.12
2018-08-04T01:48:39.178Z,52.29
2018-08-04T01:51:13.110Z,52.49
2018-08-04T01:53:46.579Z,52.27
2018-08-04T01:56:19.977Z,52.16
2018-08-04T01:58:53.531Z,51.97
2018-08-04T02:01:27.040Z,51.82
2018-08-04T02:04:00.743Z,51.85
2018-08-04T02:06:34.375Z,52.42
2018-08-04T02:09:08.871Z,52.67
2018-08-04T02:11:42.259Z,53.30
2018-08-04T02:14:15.635Z,53.66
2018-08-04T02:16:49.706Z,54.12
2018-08-04T02:19:23.158Z,53.94
2018-08-04T02:21:56.627Z,55.28
2018-08-04T02:24:30.011Z,54.41
2018-08-04T02:27:03.431Z,55.16
2018-08-04T02:29:36.859Z,54.94
2018-08-04T02:32:10.266Z,55.57
2018-08-04T02:34:43.679Z,55.80
2018-08-04T02:37:17.099Z,55.42
2018-08-04T02:39:50.523Z,56.12
2018-08-04T02:42:23.926Z,56.67
2018-08-04T02:44:57.314Z,56.00
2018-08-04T02:47:30.708Z,56.02
2018-08-04T02:50:04.159Z,55.33
2018-08-04T02:52:37.556Z,56.12
2018-08-04T02:55:10.950Z,56.27
2018-08-04T02:57:44.392Z,56.05
2018-08-04T03:00:17.856Z,57.45
2018-08-04T03:02:51.284Z,56.57
2018-08-04T03:05:24.697Z,56.25
2018-08-04T03:07:58.108Z,57.19
2018-08-04T03:10:31.519Z,56.75
2018-08-04T03:13:04.966Z,56.54
2018-08-04T03:15:38.380Z,56.16
2018-08-04T03:18:11.963Z,56.74
2018-08-04T03:20:45.358Z,56.83
2018-08-04T03:23:18.927Z,56.66
2018-08-04T03:25:52.412Z,56.76
2018-08-04T03:28:25.956Z,57.26
2018-08-04T03:30:59.379Z,56.77
2018-08-04T03:33:32.915Z,56.55
2018-08-04T03:36:06.349Z,57.56
2018-08-04T03:38:39.851Z,57.24
2018-08-04T03:41:13.223Z,57.02
2018-08-04T03:43:46.763Z,56.66
2018-08-04T03:46:20.226Z,56.59
2018-08-04T03:48:53.613Z,56.73
2018-08-04T03:51:26.990Z,57.29
2018-08-04T03:54:00.382Z,57.29
2018-08-04T03:56:33.819Z,57.80
2018-08-04T03:59:07.236Z,56.83
2018-08-04T04:01:40.667Z,57.51
2018-08-04T04:04:14.051Z,57.39
2018-08-04T04:06:47.508Z,57.99
2018-08-04T04:09:20.898Z,57.29
2018-08-04T04:11:54.333Z,56.98
2018-08-04T04:14:27.801Z,57.44
2018-08-04T04:17:01.240Z,57.07
2018-08-04T04:19:34.615Z,57.49
2018-08-04T04:22:08.084Z,56.98
2018-08-04T04:24:41.470Z,56.67
2018-08-04T04:27:14.963Z,56.75
2018-08-04T04:29:48.329Z,57.05
2018-08-04T04:32:21.768Z,56.86
2018-08-04T04:34:55.140Z,56.88
2018-08-04T04:37:28.538Z,57.58
2018-08-04T04:40:02.245Z,56.99
2018-08-04T04:42:35.723Z,57.83
2018-08-04T04:45:09.133Z,56.68
2018-08-04T04:47:42.559Z,56.85
2018-08-04T04:50:15.915Z,57.15
2018-08-04T04:52:49.399Z,56.83
2018-08-04T04:55:22.883Z,57.88
2018-08-04T04:57:56.291Z,56.62
2018-08-04T05:00:29.681Z,57.30
2018-08-04T05:03:03.104Z,56.74
2018-08-04T05:05:36.504Z,56.60
2018-08-04T05:08:10.019Z,55.96
2018-08-04T05:10:43.432Z,56.06
2018-08-04T05:13:17.002Z,55.59
2018-08-04T05:15:50.401Z,55.33
2018-08-04T05:18:23.807Z,55.03
2018-08-04T05:20:57.202Z,55.36
2018-08-04T05:23:30.664Z,55.30
2018-08-04T05:26:04.092Z,55.46
2018-08-04T05:28:37.533Z,55.38
2018-08-04T05:31:11.022Z,55.00
2018-08-04T05:33:44.427Z,56.22
2018-08-04T05:36:17.836Z,55.27
2018-08-04T05:38:51.251Z,55.39
2018-08-04T05:41:24.736Z,55.17
2018-08-04T05:43:58.185Z,54.81
2018-08-04T05:46:31.618Z,54.54
2018-08-04T05:49:05.046Z,55.51
2018-08-04T05:51:38.487Z,55.23
2018-08-04T05:54:11.921Z,55.07
2018-08-04T05:56:45.323Z,54.53
2018-08-04T05:59:18.929Z,55.16
2018-08-04T06:01:52.370Z,54.59
2018-08-04T06:04:25.814Z,54.58
2018-08-04T06:06:59.229Z,54.65
2018-08-04T06:09:32.631Z,53.93
2018-08-04T06:12:06.095Z,53.89
2018-08-04T06:14:39.546Z,54.06
2018-08-04T06:17:12.953Z,54.56
2018-08-04T06:19:46.372Z,54.25
2018-08-04T06:22:19.838Z,53.95
2018-08-04T06:24:53.318Z,53.76
2018-08-04T06:27:26.758Z,54.05
2018-08-04T06:30:00.199Z,53.89
2018-08-04T06:32:33.617Z,53.59
2018-08-04T06:35:07.162Z,53.97
2018-08-04T06:37:40.634Z,54.39
2018-08-04T06:40:14.076Z,53.65
2018-08-04T06:42:47.488Z,53.44
2018-08-04T06:45:20.948Z,53.68
2018-08-04T06:47:54.512Z,53.69
2018-08-04T06:50:28.028Z,53.07
2018-08-04T06:53:01.492Z,53.34
2018-08-04T06:55:34.902Z,52.78
2018-08-04T06:58:08.369Z,54.18
2018-08-04T07:00:41.866Z,52.43
2018-08-04T07:03:15.261Z,51.40
2018-08-04T07:05:49.016Z,51.39
2018-08-04T07:08:22.574Z,51.10
2018-08-04T07:10:56.021Z,54.43
2018-08-04T07:13:29.400Z,51.15
2018-08-04T07:16:03.005Z,51.85
2018-08-04T07:18:36.529Z,51.10
2018-08-04T07:21:09.937Z,50.74
2018-08-04T07:23:43.408Z,50.38
2018-08-04T07:26:16.783Z,50.18
2018-08-04T07:28:50.178Z,49.92
2018-08-04T07:31:23.569Z,49.97
2018-08-04T07:33:57.033Z,50.24
2018-08-04T07:36:30.529Z,49.47
2018-08-04T07:39:04.868Z,48.49
2018-08-04T07:41:38.327Z,49.23
2018-08-04T07:44:11.783Z,49.00
2018-08-04T07:46:45.272Z,48.24
2018-08-04T07:49:18.683Z,47.91
2018-08-04T07:51:52.385Z,48.45
2018-08-04T07:54:25.779Z,48.47
2018-08-04T07:56:59.626Z,47.46
2018-08-04T07:59:33.154Z,47.43
2018-08-04T08:02:07.306Z,47.51
2018-08-04T08:04:40.805Z,47.09
2018-08-04T08:07:14.291Z,46.76
2018-08-04T08:09:47.918Z,46.26
2018-08-04T08:12:21.476Z,46.04
2018-08-04T08:14:54.909Z,46.12
2018-08-04T08:17:28.361Z,44.84
2018-08-04T08:20:01.801Z,43.35
2018-08-04T08:22:40.238Z,42.61
2018-08-04T08:25:13.725Z,40.51
2018-08-04T08:27:47.158Z,40.67
2018-08-04T08:30:20.687Z,40.79
2018-08-04T08:32:54.211Z,42.13
2018-08-04T08:35:27.631Z,42.09
2018-08-04T08:38:01.048Z,44.37
2018-08-04T08:40:34.458Z,43.25
2018-08-04T08:43:09.598Z,43.35
2018-08-04T08:45:43.140Z,43.48
2018-08-04T08:48:16.552Z,42.73
2018-08-04T08:50:49.991Z,43.02
2018-08-04T08:53:23.991Z,42.79
2018-08-04T08:55:58.614Z,43.37
2018-08-04T08:58:32.477Z,42.88
2018-08-04T09:01:06.127Z,42.37
2018-08-04T09:03:40.626Z,40.60
2018-08-04T09:06:14.489Z,39.64
2018-08-04T09:08:47.913Z,39.34
2018-08-04T09:11:21.380Z,40.49
2018-08-04T09:13:54.880Z,39.42
2018-08-04T09:16:28.316Z,38.56
2018-08-04T09:19:01.760Z,38.36
2018-08-04T09:21:35.641Z,35.90
2018-08-04T09:24:09.035Z,35.11
2018-08-04T09:26:42.465Z,34.85
2018-08-04T09:29:15.882Z,34.48
2018-08-04T09:31:49.490Z,33.03
2018-08-04T09:34:23.002Z,33.26
2018-08-04T09:36:56.487Z,33.78
2018-08-04T09:39:29.919Z,33.84
2018-08-04T09:42:03.348Z,33.28
2018-08-04T09:44:36.845Z,33.54
2018-08-04T09:47:10.259Z,34.36
2018-08-04T09:49:43.769Z,34.63
2018-08-04T09:52:17.211Z,34.40
2018-08-04T09:54:50.613Z,33.59
2018-08-04T09:57:24.336Z,34.55
2018-08-04T09:59:57.757Z,34.12
2018-08-04T10:02:31.204Z,34.43
2018-08-04T10:05:04.733Z,35.25
2018-08-04T10:07:38.836Z,35.76
2018-08-04T10:10:12.455Z,34.33
2018-08-04T10:12:45.860Z,34.79
2018-08-04T10:15:19.410Z,34.82
2018-08-04T10:17:52.844Z,34.63
2018-08-04T10:20:26.537Z,34.37
2018-08-04T10:23:00.036Z,33.82
2018-08-04T10:25:33.456Z,33.89
2018-08-04T10:28:06.858Z,33.43
2018-08-04T10:30:40.412Z,32.84
2018-08-04T10:33:13.860Z,31.83
2018-08-04T10:35:47.336Z,33.06
2018-08-04T10:38:20.782Z,32.29
2018-08-04T10:40:55.819Z,30.85
2018-08-04T10:43:29.426Z,31.17
2018-08-04T10:46:02.953Z,30.43
2018-08-04T10:48:36.351Z,30.56
2018-08-04T10:51:10.423Z,29.86
2018-08-04T10:53:43.976Z,30.30
2018-08-04T10:56:17.464Z,30.41
2018-08-04T10:58:50.952Z,30.18
2018-08-04T11:01:24.402Z,30.23
2018-08-04T11:03:58.079Z,29.51
2018-08-04T11:06:31.528Z,30.17
2018-08-04T11:09:08.097Z,29.75
2018-08-04T11:11:41.519Z,30.15
2018-08-04T11:14:15.022Z,30.33
2018-08-04T11:16:48.799Z,30.22
2018-08-04T11:19:22.677Z,29.54
2018-08-04T11:21:57.607Z,29.08
2018-08-04T11:24:35.883Z,28.75
2018-08-04T11:27:09.647Z,28.73
2018-08-04T11:29:43.280Z,29.56
2018-08-04T11:32:16.949Z,29.63
2018-08-04T11:34:50.671Z,31.06
2018-08-04T11:37:24.425Z,30.37
2018-08-04T11:39:58.012Z,28.95
2018-08-04T11:42:31.682Z,27.01
2018-08-04T11:45:06.627Z,27.24
2018-08-04T11:47:40.272Z,27.49
2018-08-04T11:50:15.095Z,29.62
2018-08-04T11:52:48.849Z,29.34
2018-08-04T11:55:22.862Z,29.22
2018-08-04T11:57:56.717Z,29.40
2018-08-04T12:00:30.225Z,29.49
2018-08-04T12:03:03.670Z,29.37
2018-08-04T12:05:37.147Z,29.03
2018-08-04T12:08:10.627Z,29.05
2018-08-04T12:10:44.279Z,29.54
2018-08-04T12:13:17.679Z,28.84
2018-08-04T12:15:51.096Z,28.28
2018-08-04T12:18:24.495Z,29.30
2018-08-04T12:20:57.888Z,29.05
2018-08-04T12:23:31.325Z,29.42
2018-08-04T12:26:06.818Z,29.82
2018-08-04T12:28:40.336Z,29.39
2018-08-04T12:31:13.780Z,30.50
2018-08-04T12:33:47.191Z,30.46
2018-08-04T12:36:20.647Z,29.62
2018-08-04T12:38:54.073Z,30.85
2018-08-04T12:41:27.469Z,30.68
2018-08-04T12:44:00.922Z,29.43
2018-08-04T12:46:34.400Z,30.46
2018-08-04T12:49:08.043Z,30.18
2018-08-04T12:51:41.569Z,30.64
2018-08-04T12:54:15.069Z,30.97
2018-08-04T12:56:48.495Z,30.80
2018-08-04T12:59:21.995Z,30.58
2018-08-04T13:01:55.451Z,31.26
2018-08-04T13:04:30.067Z,30.88
2018-08-04T13:07:03.635Z,31.95
2018-08-04T13:09:37.330Z,31.18
2018-08-04T13:12:10.728Z,31.13
2018-08-04T13:14:45.247Z,32.84
2018-08-04T13:17:18.587Z,32.40
2018-08-04T13:19:53.056Z,31.58
2018-08-04T13:22:26.464Z,32.25
2018-08-04T13:24:59.960Z,32.15
2018-08-04T13:27:33.440Z,31.35
2018-08-04T13:30:07.000Z,32.05
2018-08-04T13:32:41.186Z,31.73
2018-08-04T13:35:14.569Z,31.82
2018-08-04T13:37:48.253Z,32.32
2018-08-04T13:40:21.664Z,31.79
2018-08-04T13:42:55.051Z,32.65
2018-08-04T13:45:28.338Z,32.21
2018-08-04T13:48:01.644Z,32.21
2018-08-04T13:50:35.017Z,32.10
2018-08-04T13:53:08.770Z,32.36
2018-08-04T13:55:42.097Z,32.55
2018-08-04T13:58:17.037Z,34.93
2018-08-04T14:00:50.411Z,32.58
2018-08-04T14:03:23.772Z,31.65
2018-08-04T14:05:57.118Z,32.29
2018-08-04T14:08:30.406Z,33.48
2018-08-04T14:11:04.256Z,32.50
2018-08-04T14:13:37.939Z,33.20
2018-08-04T14:16:11.288Z,32.58
2018-08-04T14:18:44.625Z,31.66
2018-08-04T14:21:17.941Z,31.68
2018-08-04T14:23:51.216Z,32.56
2018-08-04T14:26:24.532Z,31.92
2018-08-04T14:28:57.921Z,31.81
2018-08-04T14:31:31.276Z,32.63
2018-08-04T14:34:04.650Z,33.23
2018-08-04T14:36:37.987Z,32.55
2018-08-04T14:39:12.783Z,32.23
2018-08-04T14:41:46.096Z,31.92
2018-08-04T14:44:19.376Z,31.94
2018-08-04T14:46:52.693Z,31.73
2018-08-04T14:49:25.988Z,32.52
2018-08-04T14:51:59.308Z,31.76
2018-08-04T14:54:32.664Z,30.87
2018-08-04T14:57:06.415Z,31.43
2018-08-04T14:59:39.808Z,31.58
2018-08-04T15:02:13.102Z,32.73
2018-08-04T15:04:46.449Z,32.74
2018-08-04T15:07:19.760Z,33.42
2018-08-04T15:09:53.087Z,33.22
2018-08-04T15:12:26.413Z,33.38
2018-08-04T15:14:59.742Z,33.13
2018-08-04T15:17:33.051Z,32.96
2018-08-04T15:20:07.271Z,32.88
2018-08-04T15:22:40.592Z,33.16
2018-08-04T15:25:13.905Z,33.75
2018-08-04T15:27:47.218Z,33.43
2018-08-04T15:30:20.559Z,33.14
2018-08-04T15:32:53.853Z,33.43
2018-08-04T15:35:27.152Z,34.81
2018-08-04T15:38:00.682Z,34.22
2018-08-04T15:40:34.174Z,35.05
2018-08-04T15:43:07.601Z,34.65
2018-08-04T15:45:40.929Z,35.35
2018-08-04T15:48:14.264Z,35.66
2018-08-04T15:50:47.789Z,35.14
2018-08-04T15:53:21.083Z,35.66
2018-08-04T15:55:54.384Z,35.37
2018-08-04T15:58:27.676Z,35.52
2018-08-04T16:01:01.013Z,35.69
2018-08-04T16:03:34.493Z,35.77
2018-08-04T16:06:07.927Z,35.83
2018-08-04T16:08:41.204Z,35.25
2018-08-04T16:11:14.533Z,35.82
2018-08-04T16:13:47.804Z,35.20
2018-08-04T16:16:21.124Z,35.34
2018-08-04T16:18:54.407Z,35.85
2018-08-04T16:21:27.724Z,35.99
2018-08-04T16:24:01.146Z,34.90
2018-08-04T16:26:34.453Z,35.34
2018-08-04T16:29:07.809Z,35.37
2018-08-04T16:31:41.127Z,35.62
2018-08-04T16:34:14.486Z,35.44
2018-08-04T16:36:47.791Z,35.62
2018-08-04T16:39:21.138Z,35.61
2018-08-04T16:41:54.495Z,35.67
2018-08-04T16:44:27.776Z,35.81
2018-08-04T16:47:01.209Z,35.64
2018-08-04T16:49:34.502Z,35.46
2018-08-04T16:52:07.855Z,35.71
2018-08-04T16:54:41.144Z,35.66
2018-08-04T16:57:14.564Z,35.15
2018-08-04T16:59:47.892Z,35.31
2018-08-04T17:02:21.216Z,35.73
2018-08-04T17:04:54.623Z,35.97
2018-08-04T17:07:27.994Z,36.06
2018-08-04T17:10:02.168Z,35.85
2018-08-04T17:12:35.633Z,35.92
2018-08-04T17:15:09.036Z,35.73
2018-08-04T17:17:42.548Z,36.07
2018-08-04T17:20:15.910Z,35.87
2018-08-04T17:22:49.261Z,36.41
2018-08-04T17:25:22.724Z,36.25
2018-08-04T17:27:56.142Z,36.71
2018-08-04T17:30:29.573Z,36.61
2018-08-04T17:33:02.944Z,36.39
2018-08-04T17:35:36.480Z,37.02
2018-08-04T17:38:09.852Z,36.82
2018-08-04T17:40:43.167Z,37.07
2018-08-04T17:43:16.488Z,36.72
2018-08-04T17:45:49.816Z,36.59
2018-08-04T17:48:23.647Z,37.42
2018-08-04T17:50:57.013Z,37.27
2018-08-04T17:53:30.343Z,37.25
2018-08-04T17:56:03.661Z,37.42
2018-08-04T17:58:37.071Z,37.80
2018-08-04T18:01:10.357Z,37.45
2018-08-04T18:03:43.744Z,38.12
2018-08-04T18:06:17.098Z,37.85
2018-08-04T18:08:50.421Z,38.29
2018-08-04T18:11:23.771Z,38.14
2018-08-04T18:13:57.106Z,38.21
2018-08-04T18:16:30.637Z,38.23
2018-08-04T18:19:04.006Z,38.44
2018-08-04T18:21:37.391Z,38.21
2018-08-04T18:24:10.725Z,38.22
2018-08-04T18:26:44.020Z,38.94
2018-08-04T18:29:17.415Z,39.00
2018-08-04T18:31:50.692Z,39.29
2018-08-04T18:34:24.169Z,39.08
2018-08-04T18:36:57.485Z,39.48
2018-08-04T18:39:30.789Z,39.07
2018-08-04T18:42:04.156Z,39.89
2018-08-04T18:44:37.502Z,39.91
2018-08-04T18:47:10.960Z,39.63
2018-08-04T18:49:44.357Z,40.59
2018-08-04T18:52:17.679Z,40.35
2018-08-04T18:54:50.972Z,40.61
2018-08-04T18:57:24.288Z,41.19
2018-08-04T18:59:57.647Z,40.73
2018-08-04T19:02:31.179Z,41.36
2018-08-04T19:05:04.512Z,41.13
2018-08-04T19:07:37.837Z,41.11
2018-08-04T19:10:11.175Z,41.05
2018-08-04T19:12:44.505Z,41.65
2018-08-04T19:15:17.884Z,41.43
2018-08-04T19:17:51.252Z,41.67
2018-08-04T19:20:24.576Z,41.65
2018-08-04T19:22:58.054Z,41.87
2018-08-04T19:25:31.515Z,42.17
2018-08-04T19:28:05.048Z,42.13
2018-08-04T19:30:38.421Z,42.03
2018-08-04T19:33:11.799Z,41.85
2018-08-04T19:35:45.295Z,42.16
2018-08-04T19:38:19.104Z,42.20
2018-08-04T19:40:52.458Z,42.26
2018-08-04T19:43:25.789Z,41.65
2018-08-04T19:45:59.096Z,42.08
2018-08-04T19:48:32.553Z,42.03
2018-08-04T19:51:06.100Z,41.94
2018-08-04T19:53:39.444Z,42.30
2018-08-04T19:56:12.758Z,41.95
2018-08-04T19:58:46.161Z,42.84
2018-08-04T20:01:19.489Z,42.58
2018-08-04T20:03:52.948Z,43.48
2018-08-04T20:06:26.299Z,43.81
2018-08-04T20:08:59.748Z,44.63
2018-08-04T20:11:33.063Z,44.71
2018-08-04T20:14:06.492Z,44.91
2018-08-04T20:16:39.900Z,45.06
2018-08-04T20:19:13.216Z,44.97
2018-08-04T20:21:46.724Z,46.25
2018-08-04T20:24:20.060Z,46.64
2018-08-04T20:26:53.422Z,46.04
2018-08-04T20:29:26.818Z,46.31
2018-08-04T20:32:00.133Z,46.33
2018-08-04T20:34:33.749Z,46.08
2018-08-04T20:37:07.101Z,45.98
2018-08-04T20:39:40.419Z,46.77
2018-08-04T20:42:13.724Z,47.00
2018-08-04T20:44:47.156Z,46.95
2018-08-04T20:47:21.215Z,47.08
2018-08-04T20:49:54.640Z,49.67
2018-08-04T20:52:28.030Z,48.89
2018-08-04T20:55:01.440Z,49.86
2018-08-04T20:57:34.980Z,48.88
2018-08-04T21:00:08.409Z,48.85
2018-08-04T21:02:41.720Z,48.63
2018-08-04T21:05:15.087Z,48.64
2018-08-04T21:07:48.380Z,50.21
2018-08-04T21:10:21.746Z,48.73
2018-08-04T21:12:55.046Z,48.90
2018-08-04T21:15:29.098Z,49.97
2018-08-04T21:18:02.671Z,49.06
2018-08-04T21:20:36.004Z,50.09
2018-08-04T21:23:09.303Z,51.72
2018-08-04T21:25:42.639Z,51.23
2018-08-04T21:28:15.939Z,51.02
2018-08-04T21:30:49.996Z,51.94
2018-08-04T21:33:23.316Z,50.88
2018-08-04T21:35:56.700Z,51.15
2018-08-04T21:38:29.989Z,51.99
2018-08-04T21:41:03.306Z,51.33
2018-08-04T21:43:36.689Z,51.70
2018-08-04T21:46:10.020Z,51.69
2018-08-04T21:48:43.309Z,51.28
2018-08-04T21:51:16.625Z,51.94
2018-08-04T21:53:50.187Z,51.99
2018-08-04T21:56:23.509Z,51.59
2018-08-04T21:58:58.169Z,51.54
2018-08-04T22:01:31.534Z,52.92
2018-08-04T22:04:04.939Z,52.41
2018-08-04T22:07:52.409Z,53.63
2018-08-04T22:10:25.868Z,53.24
2018-08-04T22:12:59.269Z,52.36
2018-08-04T22:15:32.556Z,52.72
2018-08-04T22:18:05.900Z,52.39
2018-08-04T22:20:39.226Z,52.30
2018-08-04T22:23:12.541Z,52.44
2018-08-04T22:25:45.856Z,53.19
2018-08-04T22:28:19.145Z,53.20
2018-08-04T22:30:52.460Z,54.13
2018-08-04T22:33:25.998Z,52.84
2018-08-04T22:35:59.279Z,53.71
2018-08-04T22:38:32.734Z,54.04
2018-08-04T22:41:06.271Z,53.83
2018-08-04T22:43:39.598Z,53.66
2018-08-04T22:46:14.934Z,53.54
2018-08-04T22:48:49.698Z,53.88
2018-08-04T22:51:27.208Z,54.29
2018-08-04T22:54:00.501Z,53.85
2018-08-04T22:56:33.817Z,54.80
2018-08-04T22:59:07.131Z,53.96
2018-08-04T23:01:40.437Z,53.97
2018-08-04T23:04:13.735Z,54.78
2018-08-04T23:06:47.101Z,55.91
2018-08-04T23:09:20.412Z,55.84
2018-08-04T23:11:53.761Z,54.76
2018-08-04T23:14:27.081Z,54.90
2018-08-04T23:17:00.384Z,55.60
2018-08-04T23:19:34.797Z,55.94
2018-08-04T23:22:08.124Z,55.83
2018-08-04T23:24:41.444Z,56.56
2018-08-04T23:27:14.748Z,55.84
2018-08-04T23:29:48.076Z,55.82
2018-08-04T23:32:21.375Z,55.68
2018-08-04T23:34:54.773Z,55.82
2018-08-04T23:37:28.337Z,56.13
2018-08-04T23:40:01.797Z,56.06
2018-08-04T23:42:36.190Z,55.93
2018-08-04T23:45:09.593Z,57.01
2018-08-04T23:47:42.979Z,56.67
2018-08-04T23:50:16.314Z,56.66
2018-08-04T23:52:49.793Z,57.09
2018-08-04T23:55:23.273Z,56.74
2018-08-04T23:57:56.596Z,56.66
